Terminal Aerodrome Forecast
Issued by NWS

Home | Current Version | Previous Version | Text Only | Print | Product List | Glossary On
Versions: 1 2 3 4 5 6 7 8 9 10 11 12 13 14 15 16 17 18 19 20 21 22 23 24 25 26
000
FTUS45 KBOI 080659 AAA
TAFTWF
TAF AMD
KTWF 080659Z 0807/0906 19009KT P6SM VCSH FEW100 BKN200
      TEMPO 0807/0809 VRB10KT P6SM -SHRA SCT070 BKN100
     FM081500 07006KT P6SM SCT100 OVC200
     FM081900 04006KT P6SM VCTS SCT050CB BKN100 PROB30 0821/0901
      -TSRA BKN050CB
     FM090300 VRB06KT P6SM BKN100 OVC200=

USA.gov is the U.S. government's official web portal to all federal, state and local government web resources and services.